Terminal Aerodrome Forecast
Issued by NWS Mt. Holly, NJ

Home | Current Version | Previous Version | Text Only | Print | Product List | Glossary On
Versions: 1 2 3 4 5 6 7 8 9 10 11 12 13 14 15 16
000
FTUS41 KPHI 130705 AAA
TAFTTN
TAF AMD
KTTN 130705Z 1307/1406 28012G21KT P6SM SKC
     FM131100 28016G29KT P6SM SKC
     FM132200 26011KT P6SM SCT100
     FM140500 VRB03KT P6SM OVC050=

USA.gov is the U.S. government's official web portal to all federal, state and local government web resources and services.